• Join FlightAware (Why Join?)
  • Login
  • US Flag 
06:21AM EDT


 

Airport Tracker/Info


-or-


 

Live Flight TrackerFlight Track Log ✈ N680CF ✈ 25-Apr-2013 ✈ KTEB - KICT

Flight Track Log - Related Links

Times and Time Zones

All times are in EDT time to prevent confusion due to time zone crossing. See the N680CF flight status page for this flight to view local times or setup timezone preferences in your user account.

Time Position Orientation Groundspeed Altitude Reporting Facility
EDT Latitude Longitude Course Direction KTS MPH feet Rate Location/Type
08:22PM 40.8333 -74.1000 246° West 172 198 1,400  Level New York TRACON
08:23PM 40.8167 -74.1500 246° West 198 228 1,700 1,680 Climbing New York TRACON
08:25PM 40.7947 -74.2850 258° West 228 262 5,800 2,520 Climbing New York Center
08:25PM 40.7833 -74.3167 245° Southwest 251 289 7,100 2,460 Climbing New York TRACON
08:27PM 40.7647 -74.4506 260° West 250 288 10,700 2,940 Climbing New York Center
08:28PM 40.7508 -74.5594 260° West 290 334 14,800 3,000 Climbing New York Center
08:29PM 40.7367 -74.6764 261° West 311 358 16,800 2,400 Climbing New York Center
08:30PM 40.7225 -74.7825 260° West 327 376 19,700 3,120 Climbing New York Center
08:31PM 40.7081 -74.9019 261° West 332 382 23,100 3,300 Climbing New York Center
08:32PM 40.6936 -75.0133 260° West 332 382 26,500 2,940 Climbing New York Center
08:33PM 40.6669 -75.1211 252° West 321 369 29,100 2,280 Climbing New York Center
08:34PM 40.6194 -75.2167 237° Southwest 313 360 31,000 1,620 Climbing New York Center
08:35PM 40.5719 -75.3200 239° Southwest 319 367 32,500 1,500 Climbing New York Center
08:36PM 40.5261 -75.4236 240° Southwest 329 379 34,000 1,440 Climbing New York Center
08:37PM 40.4783 -75.5267 239° Southwest 329 379 35,300 1,020 Climbing New York Center
08:39PM 40.3819 -75.7381 239° Southwest 334 384 37,200 960 Climbing New York Center
08:40PM 40.3314 -75.8489 239° Southwest 344 396 38,200 1,020 Climbing New York Center
08:41PM 40.2769 -75.9536 236° Southwest 349 402 39,300 600 Climbing New York Center
08:43PM 40.1808 -76.1697 240° Southwest 346 398 40,000 180 Climbing Washington Center
08:44PM 40.1261 -76.2861 238° Southwest 356 410 40,000  Level Washington Center
08:45PM 40.0692 -76.4047 238° Southwest 378 435 40,000  Level Washington Center
08:46PM 40.0058 -76.5394 238° Southwest 394 453 40,000  Level Washington Center
08:47PM 39.9486 -76.6631 239° Southwest 399 459 40,000  Level Washington Center
08:48PM 39.8975 -76.7678 238° Southwest 399 459 40,000  Level Washington Center
08:49PM 39.8400 -76.8831 237° Southwest 399 459 40,000  Level Washington Center
08:50PM 39.7844 -77.0036 239° Southwest 394 453 40,000  Level Washington Center
08:51PM 39.7311 -77.1214 240° Southwest 383 441 40,000  Level Washington Center
08:52PM 39.6775 -77.2389 239° Southwest 383 441 40,000  Level Washington Center
08:53PM 39.6217 -77.3561 238° Southwest 383 441 40,000  Level Washington Center
08:54PM 39.5658 -77.4706 238° Southwest 383 441 40,000  Level Washington Center
08:55PM 39.5117 -77.5847 238° Southwest 383 441 40,000  Level Washington Center
08:56PM 39.4511 -77.7122 238° Southwest 383 441 40,000  Level Washington Center
08:57PM 39.3950 -77.8314 239° Southwest 383 441 40,000  Level Washington Center
08:58PM 39.3447 -77.9506 241° Southwest 383 441 40,000  Level Washington Center
08:59PM 39.2964 -78.0722 243° Southwest 383 441 40,000  Level Washington Center
09:00PM 39.2481 -78.1939 243° Southwest 383 441 40,000  Level Washington Center
09:01PM 39.1994 -78.3156 243° Southwest 383 441 40,000  Level Washington Center
09:02PM 39.1508 -78.4394 243° Southwest 383 441 40,000  Level Washington Center
09:03PM 39.1019 -78.5606 243° Southwest 383 441 40,000  Level Washington Center
09:04PM 39.0531 -78.6761 241° Southwest 383 441 40,000  Level Washington Center
09:05PM 39.0061 -78.7972 244° Southwest 383 441 40,000  Level Washington Center
09:06PM 38.9569 -78.9178 242° Southwest 383 441 40,000  Level Washington Center
09:07PM 38.9078 -79.0356 242° Southwest 383 441 40,000  Level Washington Center
09:08PM 38.8606 -79.1561 243° Southwest 383 441 40,000  Level Washington Center
09:09PM 38.8278 -79.2797 251° West 378 435 40,000  Level Washington Center
09:10PM 38.8050 -79.4092 257° West 372 428 40,000  Level Washington Center
09:11PM 38.7819 -79.5383 257° West 372 428 40,000  Level Washington Center
09:12PM 38.7592 -79.6569 256° West 377 434 40,000  Level Washington Center
09:13PM 38.7381 -79.7889 258° West 377 434 40,000  Level Washington Center
09:15PM 38.6828 -80.0575 255° West 374 430 40,000  Level Indianapolis Center
09:16PM 38.6592 -80.1856 257° West 370 426 40,000  Level Indianapolis Center
09:17PM 38.6344 -80.3142 256° West 371 427 40,000  Level Indianapolis Center
09:18PM 38.6100 -80.4433 256° West 373 429 40,000 60 Level Indianapolis Center
09:19PM 38.5861 -80.5719 257° West 371 427 40,200 300 Climbing Indianapolis Center
09:20PM 38.5722 -80.7022 262° West 370 426 40,700 480 Climbing Indianapolis Center
09:21PM 38.5622 -80.8308 264° West 365 420 41,200 480 Climbing Indianapolis Center
09:22PM 38.5528 -80.9572 265° West 357 411 41,700 480 Climbing Indianapolis Center
09:23PM 38.5431 -81.0831 264° West 355 409 42,200 480 Climbing Indianapolis Center
09:24PM 38.5331 -81.2069 264° West 352 405 42,700 360 Climbing Indianapolis Center
09:25PM 38.5211 -81.3558 264° West 349 402 43,000 120 Climbing Indianapolis Center
09:26PM 38.5119 -81.4847 265° West 358 412 43,000  Level Indianapolis Center
09:27PM 38.5008 -81.6144 264° West 363 418 43,000  Level Indianapolis Center
09:28PM 38.4903 -81.7442 264° West 364 419 43,000  Level Indianapolis Center
09:29PM 38.4794 -81.8736 264° West 364 419 43,000  Level Indianapolis Center
09:30PM 38.4678 -82.0014 263° West 361 415 43,000  Level Indianapolis Center
09:31PM 38.4569 -82.1281 264° West 360 414 43,000  Level Indianapolis Center
09:32PM 38.4464 -82.2531 264° West 355 409 43,000  Level Indianapolis Center
09:33PM 38.4350 -82.3775 263° West 353 406 43,000  Level Indianapolis Center
09:34PM 38.4233 -82.4964 263° West 345 397 43,000  Level Indianapolis Center
09:35PM 38.4131 -82.6192 264° West 347 399 43,000  Level Indianapolis Center
09:36PM 38.4000 -82.7617 263° West 347 399 43,000  Level Indianapolis Center
09:38PM 38.3889 -82.8814 263° West 343 395 43,000  Level Indianapolis Center
09:39PM 38.3769 -82.9997 263° West 338 389 43,000  Level Indianapolis Center
09:40PM 38.3653 -83.1186 263° West 338 389 43,000  Level Indianapolis Center
09:41PM 38.3542 -83.2389 263° West 341 392 43,000  Level Indianapolis Center
09:42PM 38.3419 -83.3558 262° West 338 389 43,000  Level Indianapolis Center
09:43PM 38.3311 -83.4747 263° West 336 387 43,000  Level Indianapolis Center
09:44PM 38.3186 -83.5967 263° West 344 396 43,000  Level Indianapolis Center
09:45PM 38.3047 -83.7347 263° West 339 390 43,000  Level Indianapolis Center
09:46PM 38.2925 -83.8536 263° West 339 390 43,000  Level Indianapolis Center
09:47PM 38.2797 -83.9750 262° West 344 396 43,000  Level Indianapolis Center
09:48PM 38.2669 -84.0961 262° West 345 397 43,000  Level Indianapolis Center
09:49PM 38.2550 -84.2150 263° West 342 394 43,000  Level Indianapolis Center
09:50PM 38.2425 -84.3358 263° West 344 396 43,000  Level Indianapolis Center
09:51PM 38.2294 -84.4553 262° West 342 394 43,000  Level Indianapolis Center
09:52PM 38.2156 -84.5772 262° West 347 399 43,000  Level Indianapolis Center
09:53PM 38.2000 -84.7169 262° West 343 395 43,000  Level Indianapolis Center
09:54PM 38.1867 -84.8389 262° West 347 399 43,000  Level Indianapolis Center
09:55PM 38.1736 -84.9617 262° West 351 404 43,000  Level Indianapolis Center
09:56PM 38.1608 -85.0822 262° West 347 399 43,000  Level Indianapolis Center
09:57PM 38.1472 -85.2014 262° West 356 410 43,000  Level Indianapolis Center
09:58PM 38.1333 -85.3214 262° West 351 404 43,000  Level Indianapolis Center
09:59PM 38.1183 -85.4444 261° West 351 404 43,000  Level Indianapolis Center
10:00PM 38.1047 -85.5656 262° West 348 400 43,000  Level Indianapolis Center
10:01PM 38.0961 -85.6869 265° West 346 398 43,000  Level Indianapolis Center
10:02PM 38.0856 -85.8094 264° West 345 397 43,000  Level Indianapolis Center
10:03PM 38.0756 -85.9561 265° West 345 397 43,000  Level Indianapolis Center
10:04PM 38.0672 -86.0781 265° West 345 397 43,000 -240 Level Indianapolis Center
10:05PM 38.0581 -86.2000 265° West 345 397 42,600 -540 Descending Indianapolis Center
10:06PM 38.0486 -86.3258 265° West 354 407 42,000 -600 Descending Indianapolis Center
10:07PM 38.0372 -86.4539 264° West 362 417 41,400 -600 Descending Indianapolis Center
10:08PM 38.0278 -86.5847 265° West 369 425 40,900 -600 Descending Indianapolis Center
10:09PM 38.0183 -86.7131 265° West 364 419 40,200 -840 Descending Indianapolis Center
10:10PM 38.0067 -86.8400 263° West 360 414 39,200 -1,020 Descending Indianapolis Center
10:11PM 37.9967 -86.9681 264° West 361 415 38,200 -600 Descending Indianapolis Center
10:12PM 37.9861 -87.0950 264° West 358 412 38,000 -120 Descending Indianapolis Center
10:13PM 37.9756 -87.2214 264° West 357 411 38,000  Level Indianapolis Center
10:14PM 37.9644 -87.3464 264° West 354 407 38,000  Level Indianapolis Center
10:15PM 37.9542 -87.4697 264° West 351 404 38,000  Level Indianapolis Center
10:16PM 37.9433 -87.5939 264° West 353 406 38,000  Level Indianapolis Center
10:17PM 37.9325 -87.7178 264° West 352 405 38,000  Level Indianapolis Center
10:18PM 37.9206 -87.8425 263° West 352 405 38,000  Level Indianapolis Center
10:19PM 37.9142 -87.9167 264° West 352 405 38,000  Level Kansas City Center
10:20PM 37.9028 -88.0417 263° West 353 406 38,000  Level Kansas City Center
10:21PM 37.8903 -88.1653 263° West 354 407 38,000  Level Kansas City Center
10:22PM 37.8778 -88.2900 263° West 355 409 38,000  Level Kansas City Center
10:22PM 37.8736 -88.3394 264° West 356 410 38,000  Level Indianapolis Center
10:23PM 37.8647 -88.4128 261° West 353 406 38,000  Level Kansas City Center
10:24PM 37.8525 -88.5364 263° West 352 405 38,000  Level Kansas City Center
10:25PM 37.8417 -88.6603 264° West 353 406 38,000  Level Kansas City Center
10:26PM 37.8303 -88.7747 263° West 349 402 38,000  Level Kansas City Center
10:27PM 37.8181 -88.8981 263° West 352 405 38,000  Level Kansas City Center
10:28PM 37.8019 -89.0442 262° West 359 413 38,000 -120 Level Kansas City Center
10:29PM 37.7892 -89.1669 263° West 356 410 37,800 -540 Descending Kansas City Center
10:30PM 37.7767 -89.2886 263° West 352 405 37,000 -840 Descending Kansas City Center
10:31PM 37.7639 -89.4139 263° West 348 400 36,200 -540 Descending Kansas City Center
10:32PM 37.7506 -89.5394 262° West 355 409 36,000 -120 Descending Kansas City Center
10:33PM 37.7358 -89.6658 262° West 360 414 36,000  Level Kansas City Center
10:34PM 37.7228 -89.7889 262° West 358 412 36,000  Level Kansas City Center
10:35PM 37.7089 -89.9139 262° West 358 412 36,000  Level Kansas City Center
10:36PM 37.6953 -90.0389 262° West 359 413 36,000  Level Kansas City Center
10:37PM 37.6786 -90.1889 262° West 359 413 36,000  Level Kansas City Center
10:38PM 37.6653 -90.3133 262° West 359 413 36,000  Level Kansas City Center
10:39PM 37.6544 -90.4383 264° West 358 412 36,000  Level Kansas City Center
10:40PM 37.6425 -90.5619 263° West 357 411 36,000  Level Kansas City Center
10:41PM 37.6322 -90.6856 264° West 355 409 36,000  Level Kansas City Center
10:42PM 37.6192 -90.8106 263° West 357 411 36,000  Level Kansas City Center
10:43PM 37.6072 -90.9428 264° West 357 411 36,000  Level Kansas City Center
10:44PM 37.5956 -91.0669 263° West 356 410 36,000  Level Kansas City Center
10:45PM 37.5825 -91.1906 262° West 356 410 36,000  Level Kansas City Center
10:46PM 37.5706 -91.3153 263° West 356 410 36,000  Level Kansas City Center
10:47PM 37.5578 -91.4372 263° West 352 405 36,000  Level Kansas City Center
10:48PM 37.5469 -91.5600 264° West 351 404 36,000  Level Kansas City Center
10:50PM 37.5344 -91.6833 263° West 354 407 36,000  Level Kansas City Center
10:51PM 37.5214 -91.8081 263° West 355 409 36,000  Level Kansas City Center
10:52PM 37.5081 -91.9303 262° West 353 406 36,000  Level Kansas City Center
10:53PM 37.4958 -92.0531 263° West 352 405 36,000  Level Kansas City Center
10:54PM 37.4828 -92.1764 262° West 351 404 36,000  Level Kansas City Center
10:55PM 37.4678 -92.3272 263° West 357 411 36,000  Level Kansas City Center
10:56PM 37.4553 -92.4511 263° West 355 409 36,000  Level Kansas City Center
10:57PM 37.4403 -92.5764 261° West 357 411 36,000  Level Kansas City Center
10:58PM 37.4278 -92.7019 263° West 357 411 36,000  Level Kansas City Center
10:59PM 37.4136 -92.8253 262° West 357 411 36,000  Level Kansas City Center
11:00PM 37.3989 -92.9497 262° West 356 410 36,000  Level Kansas City Center
11:01PM 37.3850 -93.0728 262° West 356 410 36,000  Level Kansas City Center
11:02PM 37.3714 -93.1967 262° West 356 410 36,000  Level Kansas City Center
11:03PM 37.3569 -93.3203 262° West 357 411 36,000  Level Kansas City Center
11:04PM 37.3658 -93.4439 275° West 357 411 36,000  Level Kansas City Center
11:05PM 37.3775 -93.5681 277° West 356 410 36,000  Level Kansas City Center
11:06PM 37.3867 -93.6906 275° West 353 406 36,000  Level Kansas City Center
11:07PM 37.3969 -93.8142 276° West 354 407 36,000  Level Kansas City Center
11:08PM 37.4078 -93.9389 276° West 356 410 36,000  Level Kansas City Center
11:09PM 37.4186 -94.0644 276° West 358 412 36,000  Level Kansas City Center
11:10PM 37.4292 -94.2000 276° West 356 410 36,000  Level Kansas City Center
11:11PM 37.4400 -94.3264 276° West 359 413 36,000  Level Kansas City Center
11:12PM 37.4506 -94.4506 276° West 359 413 36,000  Level Kansas City Center
11:13PM 37.4614 -94.5772 276° West 362 417 36,000  Level Kansas City Center
11:14PM 37.4706 -94.7011 275° West 358 412 36,000  Level Kansas City Center
11:15PM 37.4800 -94.8269 275° West 360 414 36,000  Level Kansas City Center
11:16PM 37.4894 -94.9514 276° West 359 413 36,000  Level Kansas City Center
11:17PM 37.5008 -95.1036 275° West 362 417 36,000 -60 Level Kansas City Center
11:18PM 37.5094 -95.2292 275° West 363 418 35,900 -900 Descending Kansas City Center
11:19PM 37.5181 -95.3481 275° West 351 404 34,200 -1,920 Descending Kansas City Center
11:20PM 37.5281 -95.4706 276° West 350 403 32,000 -2,160 Descending Kansas City Center
11:21PM 37.5364 -95.5975 275° West 357 411 29,800 -2,220 Descending Kansas City Center
11:22PM 37.5458 -95.7264 275° West 365 420 27,600 -2,160 Descending Kansas City Center
11:23PM 37.5539 -95.8628 274° West 379 436 25,500 -2,040 Descending Kansas City Center
11:24PM 37.5608 -95.9892 274° West 370 426 23,500 -1,980 Descending Kansas City Center
11:25PM 37.5706 -96.1069 276° West 349 402 21,500 -1,980 Descending Kansas City Center
11:26PM 37.5772 -96.2250 274° West 340 391 19,500 -2,100 Descending Kansas City Center
11:27PM 37.5847 -96.3542 274° West 317 365 17,200 -2,220 Descending Kansas City Center
11:28PM 37.5922 -96.4567 275° West 299 344 15,100 -1,980 Descending Kansas City Center
11:29PM 37.5947 -96.5019 274° West 306 352 14,400 -1,260 Descending Kansas City Center
11:29PM 37.5967 -96.5478 273° West 303 349 13,800 -1,200 Descending Kansas City Center
11:30PM 37.6017 -96.6092 276° West 303 349 13,200 -1,200 Descending Kansas City Center
11:30PM 37.6036 -96.6553 273° West 307 353 12,600 -1,200 Descending Kansas City Center
11:31PM 37.6064 -96.7142 273° West 306 352 12,000 -1,380 Descending Kansas City Center
11:31PM 37.6147 -96.7733 280° West 287 330 11,200 -1,320 Descending Kansas City Center
11:32PM 37.6242 -96.8039 291° West 254 292 10,700 -1,200 Descending Kansas City Center
11:32PM 37.6350 -96.8586 284° West 257 296 10,000 -1,200 Descending Kansas City Center
11:33PM 37.6392 -96.8886 280° West 243 280 9,500 -1,440 Descending Kansas City Center
11:33PM 37.6517 -96.9422 286° West 247 284 8,500 -1,620 Descending Kansas City Center
11:34PM 37.6561 -96.9733 280° West 247 284 7,900 -1,500 Descending Kansas City Center
11:34PM 37.6694 -97.0264 288° West 247 284 7,000 -1,500 Descending Kansas City Center
11:35PM 37.6750 -97.0550 284° West 244 281 6,400 -1,320 Descending Kansas City Center
11:35PM 37.6864 -97.1067 286° West 240 276 5,700 -1,020 Descending Kansas City Center
11:36PM 37.6917 -97.1369 282° West 235 270 5,400 -600 Descending Kansas City Center
11:36PM 37.7017 -97.1825 286° West 227 261 5,100 -600 Descending Kansas City Center
11:37PM 37.7056 -97.2139 279° West 207 238 4,800 -720 Descending Kansas City Center
11:37PM 37.7153 -97.2531 287° West 218 251 4,400 -720 Descending Kansas City Center
11:38PM 37.7211 -97.2856 283° West 212 244 4,100 -540 Descending Kansas City Center
11:38PM 37.7294 -97.3267 284° West 215 247 3,900 -660 Descending Kansas City Center
11:39PM 37.7286 -97.3611 268° West 199 229 3,400 -1,020 Descending Kansas City Center
11:39PM 37.7178 -97.3833 238° Southwest 189 217 2,900 -1,140 Descending Kansas City Center
11:40PM 37.7047 -97.3967 219° Southwest 110 127 2,300 -1,020 Descending Kansas City Center
11:40PM 37.6922 -97.4050 208° Southwest 140 161 1,900 -600 Descending Kansas City Center
11:41PM 37.6808 -97.4108 202° Southwest 83 96 1,700 -420 Descending Kansas City Center
11:42PM 37.6700 -97.4153 198° South 109 125 1,500 -360 Descending Kansas City Center